createdAt,value
2017-06-30T00:00:20.175Z,0
2017-06-30T00:01:30.422Z,0
2017-06-30T00:02:40.372Z,0
2017-06-30T00:03:50.885Z,0
2017-06-30T00:05:01.132Z,0
2017-06-30T00:06:11.087Z,0
2017-06-30T00:07:21.351Z,0
2017-06-30T00:08:31.629Z,0
2017-06-30T00:09:42.183Z,0
2017-06-30T00:10:52.445Z,0
2017-06-30T00:12:02.388Z,0
2017-06-30T00:13:12.331Z,0
2017-06-30T00:14:22.267Z,0
2017-06-30T00:15:32.142Z,0
2017-06-30T00:16:42.092Z,0
2017-06-30T00:17:52.354Z,0
2017-06-30T00:19:02.301Z,0
2017-06-30T00:20:12.251Z,0
2017-06-30T00:21:22.823Z,0
2017-06-30T00:22:32.767Z,0
2017-06-30T00:23:42.744Z,0
2017-06-30T00:24:52.717Z,0
2017-06-30T00:26:02.664Z,0
2017-06-30T00:27:13.183Z,0
2017-06-30T00:28:23.439Z,0
2017-06-30T00:29:33.699Z,0
2017-06-30T00:30:43.639Z,0
2017-06-30T00:31:53.905Z,0
2017-06-30T00:33:04.156Z,0
2017-06-30T00:34:14.110Z,0
2017-06-30T00:35:24.369Z,0
2017-06-30T00:36:34.660Z,0
2017-06-30T00:37:44.291Z,0
2017-06-30T00:38:54.535Z,0
2017-06-30T00:40:04.798Z,0
2017-06-30T00:41:14.433Z,0
2017-06-30T00:42:24.694Z,0
2017-06-30T00:43:34.643Z,0
2017-06-30T00:44:45.209Z,0
2017-06-30T00:45:55.469Z,0
2017-06-30T00:47:05.737Z,0
2017-06-30T00:48:16.011Z,0
2017-06-30T00:49:26.263Z,0
2017-06-30T00:50:36.510Z,0
2017-06-30T00:51:46.471Z,0
2017-06-30T00:52:56.724Z,0
2017-06-30T00:54:06.965Z,0
2017-06-30T00:55:16.628Z,0
2017-06-30T00:56:26.891Z,0
2017-06-30T00:57:37.140Z,0
2017-06-30T00:58:47.095Z,0
2017-06-30T00:59:56.770Z,0
2017-06-30T01:01:07.028Z,0
2017-06-30T01:02:17.536Z,0
2017-06-30T01:03:27.808Z,0
2017-06-30T01:04:38.056Z,0
2017-06-30T01:05:48.318Z,0
2017-06-30T01:06:58.574Z,0
2017-06-30T01:08:09.110Z,0
2017-06-30T01:09:19.372Z,0
2017-06-30T01:10:29.314Z,0
2017-06-30T01:11:39.264Z,0
2017-06-30T01:12:49.514Z,0
2017-06-30T01:14:00.089Z,0
2017-06-30T01:15:10.348Z,0
2017-06-30T01:16:20.307Z,0
2017-06-30T01:17:30.553Z,0
2017-06-30T01:18:40.811Z,0
2017-06-30T01:19:51.374Z,0
2017-06-30T01:21:01.641Z,0
2017-06-30T01:22:11.301Z,0
2017-06-30T01:23:21.569Z,0
2017-06-30T01:24:31.827Z,0
2017-06-30T01:25:42.352Z,0
2017-06-30T01:26:52.627Z,0
2017-06-30T01:28:02.557Z,0
2017-06-30T01:29:12.814Z,0
2017-06-30T01:30:23.661Z,0
2017-06-30T01:31:33.906Z,0
2017-06-30T01:32:44.165Z,0
2017-06-30T01:33:54.107Z,0
2017-06-30T01:35:04.365Z,0
2017-06-30T01:36:14.626Z,0
2017-06-30T01:37:25.179Z,0
2017-06-30T01:38:35.114Z,0
2017-06-30T01:39:45.075Z,0
2017-06-30T01:40:55.348Z,0
2017-06-30T01:42:05.603Z,0
2017-06-30T01:43:15.854Z,0
2017-06-30T01:44:26.113Z,0
2017-06-30T01:45:36.369Z,0
2017-06-30T01:46:46.615Z,0
2017-06-30T01:47:56.885Z,0
2017-06-30T01:49:07.437Z,0
2017-06-30T01:50:17.697Z,0
2017-06-30T01:51:28.002Z,0
2017-06-30T01:52:37.642Z,0
2017-06-30T01:53:47.908Z,0
2017-06-30T01:54:58.432Z,0
2017-06-30T01:56:08.684Z,0
2017-06-30T01:57:18.937Z,0
2017-06-30T01:58:28.886Z,0
2017-06-30T01:59:39.144Z,0
2017-06-30T02:00:49.337Z,0
2017-06-30T02:01:59.280Z,0
2017-06-30T02:03:09.553Z,0
2017-06-30T02:04:19.802Z,0
2017-06-30T02:05:29.770Z,0
2017-06-30T02:06:40.022Z,0
2017-06-30T02:07:50.288Z,0
2017-06-30T02:09:00.542Z,0
2017-06-30T02:10:10.816Z,0
2017-06-30T02:11:21.067Z,0
2017-06-30T02:12:31.314Z,0
2017-06-30T02:13:41.253Z,0
2017-06-30T02:14:51.505Z,0
2017-06-30T02:16:01.463Z,0
2017-06-30T02:17:11.729Z,0
2017-06-30T02:18:22.287Z,0
2017-06-30T02:19:32.282Z,0
2017-06-30T02:20:42.531Z,0
2017-06-30T02:21:52.805Z,0
2017-06-30T02:23:03.072Z,0
2017-06-30T02:24:13.593Z,0
2017-06-30T02:25:23.870Z,0
2017-06-30T02:26:34.137Z,0
2017-06-30T02:27:44.068Z,0
2017-06-30T02:28:54.326Z,0
2017-06-30T02:30:04.523Z,0
2017-06-30T02:31:14.472Z,0
2017-06-30T02:32:24.422Z,0
2017-06-30T02:33:34.071Z,0
2017-06-30T02:34:44.083Z,0
2017-06-30T02:35:54.666Z,0
2017-06-30T02:37:04.918Z,0
2017-06-30T02:38:15.163Z,0
2017-06-30T02:39:25.418Z,0
2017-06-30T02:40:35.683Z,0
2017-06-30T02:41:46.195Z,0
2017-06-30T02:42:56.662Z,0
2017-06-30T02:44:06.615Z,0
2017-06-30T02:45:16.889Z,0
2017-06-30T02:46:27.149Z,0
2017-06-30T02:47:37.689Z,0
2017-06-30T02:48:47.650Z,0
2017-06-30T02:49:57.902Z,0
2017-06-30T02:51:07.841Z,0
2017-06-30T02:52:17.787Z,0
2017-06-30T02:53:28.288Z,0
2017-06-30T02:54:38.229Z,0
2017-06-30T02:55:48.487Z,0
2017-06-30T02:56:58.733Z,5
2017-06-30T02:58:08.681Z,5
2017-06-30T02:59:18.863Z,0
2017-06-30T03:00:29.135Z,0
2017-06-30T03:01:39.393Z,5
2017-06-30T03:02:49.652Z,5
2017-06-30T03:03:59.906Z,5
2017-06-30T03:05:10.409Z,5
2017-06-30T03:06:20.658Z,5
2017-06-30T03:07:30.958Z,5
2017-06-30T03:08:41.240Z,5
2017-06-30T03:09:51.485Z,5
2017-06-30T03:11:01.996Z,5
2017-06-30T03:12:12.250Z,5
2017-06-30T03:13:22.519Z,5
2017-06-30T03:14:32.462Z,5
2017-06-30T03:15:42.734Z,5
2017-06-30T03:16:53.283Z,5
2017-06-30T03:18:03.552Z,5
2017-06-30T03:19:13.502Z,5
2017-06-30T03:20:23.761Z,10
2017-06-30T03:21:34.024Z,10
2017-06-30T03:22:44.528Z,10
2017-06-30T03:23:54.791Z,10
2017-06-30T03:25:05.048Z,10
2017-06-30T03:26:14.690Z,15
2017-06-30T03:27:24.954Z,15
2017-06-30T03:28:35.515Z,15
2017-06-30T03:29:45.467Z,15
2017-06-30T03:30:55.720Z,15
2017-06-30T03:32:05.673Z,15
2017-06-30T03:33:15.921Z,15
2017-06-30T03:34:26.481Z,15
2017-06-30T03:35:36.116Z,20
2017-06-30T03:36:46.365Z,20
2017-06-30T03:37:56.623Z,25
2017-06-30T03:39:06.883Z,20
2017-06-30T03:40:17.443Z,25
2017-06-30T03:41:27.392Z,30
2017-06-30T03:42:37.347Z,35
2017-06-30T03:43:47.613Z,30
2017-06-30T03:44:57.863Z,35
2017-06-30T03:46:08.105Z,30
2017-06-30T03:47:18.358Z,35
2017-06-30T03:48:28.315Z,40
2017-06-30T03:49:38.263Z,40
2017-06-30T03:50:48.509Z,40
2017-06-30T03:51:59.062Z,45
2017-06-30T03:53:09.318Z,40
2017-06-30T03:54:19.567Z,35
2017-06-30T03:55:29.830Z,30
2017-06-30T03:56:39.794Z,40
2017-06-30T03:57:50.299Z,40
2017-06-30T03:59:00.242Z,45
2017-06-30T04:00:10.183Z,55
2017-06-30T04:01:20.126Z,50
2017-06-30T04:02:30.398Z,55
2017-06-30T04:03:40.978Z,50
2017-06-30T04:04:50.930Z,55
2017-06-30T04:06:01.188Z,50
2017-06-30T04:07:11.139Z,55
2017-06-30T04:08:21.391Z,60
2017-06-30T04:09:31.594Z,50
2017-06-30T04:10:41.851Z,65
2017-06-30T04:11:51.823Z,55
2017-06-30T04:13:02.082Z,60
2017-06-30T04:14:12.029Z,45
2017-06-30T04:15:22.229Z,55
2017-06-30T04:16:32.486Z,55
2017-06-30T04:17:42.733Z,50
2017-06-30T04:18:52.670Z,50
2017-06-30T04:20:02.930Z,55
2017-06-30T04:21:13.488Z,45
2017-06-30T04:22:23.742Z,50
2017-06-30T04:23:33.691Z,50
2017-06-30T04:24:43.947Z,50
2017-06-30T04:25:54.203Z,45
2017-06-30T04:27:04.750Z,40
2017-06-30T04:28:14.693Z,40
2017-06-30T04:29:24.946Z,45
2017-06-30T04:30:35.208Z,40
2017-06-30T04:31:45.168Z,40
2017-06-30T04:32:55.364Z,45
2017-06-30T04:34:05.625Z,40
2017-06-30T04:35:15.893Z,40
2017-06-30T04:36:26.143Z,55
2017-06-30T04:37:36.381Z,40
2017-06-30T04:38:46.572Z,45
2017-06-30T04:39:56.854Z,35
2017-06-30T04:41:07.123Z,35
2017-06-30T04:42:17.375Z,35
2017-06-30T04:43:27.625Z,35
2017-06-30T04:44:38.134Z,35
2017-06-30T04:45:48.388Z,40
2017-06-30T04:46:58.662Z,45
2017-06-30T04:48:09.173Z,55
2017-06-30T04:49:19.418Z,85
2017-06-30T04:50:29.952Z,85
2017-06-30T04:51:40.243Z,90
2017-06-30T04:52:50.520Z,100
2017-06-30T04:54:00.795Z,100
2017-06-30T04:55:11.067Z,95
2017-06-30T04:56:21.590Z,120
2017-06-30T04:57:31.850Z,115
2017-06-30T04:58:41.790Z,125
2017-06-30T04:59:52.041Z,125
2017-06-30T05:01:02.306Z,130
2017-06-30T05:02:12.519Z,135
2017-06-30T05:03:22.785Z,120
2017-06-30T05:04:33.055Z,115
2017-06-30T05:05:43.350Z,105
2017-06-30T05:06:53.604Z,130
2017-06-30T05:08:04.195Z,130
2017-06-30T05:09:14.461Z,130
2017-06-30T05:10:24.122Z,140
2017-06-30T05:11:34.385Z,145
2017-06-30T05:12:44.639Z,150
2017-06-30T05:13:55.155Z,140
2017-06-30T05:15:05.111Z,145
2017-06-30T05:16:15.060Z,140
2017-06-30T05:17:25.330Z,130
2017-06-30T05:18:35.591Z,120
2017-06-30T05:19:45.841Z,100
2017-06-30T05:20:56.126Z,115
2017-06-30T05:22:06.405Z,120
2017-06-30T05:23:16.670Z,120
2017-06-30T05:24:26.936Z,95
2017-06-30T05:25:37.117Z,110
2017-06-30T05:26:47.073Z,115
2017-06-30T05:27:57.328Z,110
2017-06-30T05:29:07.606Z,120
2017-06-30T05:30:17.865Z,110
2017-06-30T05:31:28.373Z,105
2017-06-30T05:32:38.621Z,115
2017-06-30T05:33:48.890Z,100
2017-06-30T05:34:59.152Z,115
2017-06-30T05:36:08.789Z,105
2017-06-30T05:37:19.285Z,135
2017-06-30T05:38:29.548Z,120
2017-06-30T05:39:39.812Z,105
2017-06-30T05:40:50.061Z,100
2017-06-30T05:42:00.315Z,110
2017-06-30T05:43:10.859Z,140
2017-06-30T05:44:21.130Z,115
2017-06-30T05:45:31.408Z,95
2017-06-30T05:46:41.664Z,115
2017-06-30T05:47:51.960Z,80
2017-06-30T05:49:02.487Z,115
2017-06-30T05:50:12.769Z,95
2017-06-30T05:51:22.458Z,95
2017-06-30T05:52:32.721Z,85
2017-06-30T05:53:42.981Z,100
2017-06-30T05:54:53.573Z,110
2017-06-30T05:56:03.892Z,100
2017-06-30T05:57:14.146Z,100
2017-06-30T05:58:24.118Z,95
2017-06-30T05:59:34.414Z,115
2017-06-30T06:00:44.679Z,110
2017-06-30T06:01:54.934Z,120
2017-06-30T06:03:05.185Z,115
2017-06-30T06:04:15.449Z,145
2017-06-30T06:05:25.411Z,120
2017-06-30T06:06:35.921Z,120
2017-06-30T06:07:46.204Z,115
2017-06-30T06:08:56.154Z,115
2017-06-30T06:10:06.431Z,120
2017-06-30T06:11:16.694Z,90
2017-06-30T06:12:27.273Z,85
2017-06-30T06:13:37.521Z,110
2017-06-30T06:14:47.470Z,145
2017-06-30T06:15:57.713Z,180
2017-06-30T06:17:07.655Z,210
2017-06-30T06:18:18.215Z,195
2017-06-30T06:19:28.476Z,205
2017-06-30T06:20:38.750Z,200
2017-06-30T06:21:49.013Z,195
2017-06-30T06:22:58.955Z,190
2017-06-30T06:24:08.856Z,160
2017-06-30T06:25:19.124Z,150
2017-06-30T06:26:29.064Z,170
2017-06-30T06:27:39.322Z,165
2017-06-30T06:28:49.575Z,180
2017-06-30T06:30:00.090Z,180
2017-06-30T06:31:10.351Z,200
2017-06-30T06:32:20.305Z,215
2017-06-30T06:33:30.587Z,220
2017-06-30T06:34:40.742Z,215
2017-06-30T06:35:51.256Z,215
2017-06-30T06:37:01.530Z,195
2017-06-30T06:38:11.807Z,185
2017-06-30T06:39:21.747Z,190
2017-06-30T06:40:32.000Z,185
2017-06-30T06:41:42.565Z,200
2017-06-30T06:42:52.834Z,200
2017-06-30T06:44:02.798Z,195
2017-06-30T06:45:13.111Z,200
2017-06-30T06:46:23.377Z,180
2017-06-30T06:47:33.923Z,200
2017-06-30T06:48:44.182Z,230
2017-06-30T06:49:54.443Z,250
2017-06-30T06:51:04.419Z,255
2017-06-30T06:52:14.668Z,255
2017-06-30T06:53:24.867Z,270
2017-06-30T06:54:34.821Z,280
2017-06-30T06:55:44.779Z,290
2017-06-30T06:56:55.092Z,270
2017-06-30T06:58:05.365Z,295
2017-06-30T06:59:15.931Z,290
2017-06-30T07:00:26.218Z,290
2017-06-30T07:01:36.491Z,315
2017-06-30T11:43:31.089Z,1050
2017-06-30T11:44:41.059Z,1035
2017-06-30T11:45:51.034Z,1020
2017-06-30T11:47:00.709Z,955
2017-06-30T11:53:16.155Z,925
2017-06-30T11:54:26.444Z,975
2017-06-30T11:55:36.729Z,1015
2017-06-30T11:56:47.006Z,1110
2017-06-30T11:57:57.270Z,1145
2017-06-30T11:59:07.812Z,1155
2017-06-30T12:00:18.094Z,1135
2017-06-30T12:01:28.379Z,1105
2017-06-30T12:02:38.720Z,1135
2017-06-30T12:03:48.369Z,1095
2017-06-30T12:04:58.916Z,950
2017-06-30T12:06:09.207Z,945
2017-06-30T12:07:19.507Z,870
2017-06-30T12:08:29.798Z,830
2017-06-30T12:09:39.706Z,960
2017-06-30T12:10:50.244Z,940
2017-06-30T12:12:00.229Z,1015
2017-06-30T12:13:10.196Z,1040
2017-06-30T12:14:20.152Z,900
2017-06-30T12:15:30.130Z,940
2017-06-30T12:16:40.631Z,1065
2017-06-30T12:17:50.290Z,1060
2017-06-30T12:19:00.537Z,980
2017-06-30T12:20:10.806Z,885
2017-06-30T12:21:20.793Z,910
2017-06-30T12:22:31.312Z,1030
2017-06-30T12:23:41.574Z,915
2017-06-30T12:24:51.531Z,740
2017-06-30T12:26:01.818Z,680
2017-06-30T12:27:11.782Z,585
2017-06-30T12:28:22.012Z,675
2017-06-30T12:29:32.278Z,815
2017-06-30T12:30:42.551Z,820
2017-06-30T12:31:52.845Z,865
2017-06-30T12:33:02.851Z,820
2017-06-30T12:34:13.468Z,720
2017-06-30T12:35:23.747Z,690
2017-06-30T12:36:34.003Z,790
2017-06-30T12:37:43.950Z,930
2017-06-30T12:38:54.224Z,1080
2017-06-30T12:40:04.477Z,1035
2017-06-30T12:41:14.774Z,1120
2017-06-30T12:42:24.726Z,955
2017-06-30T12:43:34.998Z,1030
2017-06-30T12:44:44.986Z,1100
2017-06-30T12:45:55.200Z,960
2017-06-30T12:47:05.502Z,1005
2017-06-30T12:48:15.754Z,1030
2017-06-30T12:49:26.030Z,1080
2017-06-30T12:50:35.981Z,1390
2017-06-30T12:51:46.502Z,1395
2017-06-30T12:52:56.788Z,1340
2017-06-30T12:54:07.101Z,1375
2017-06-30T12:55:17.083Z,1355
2017-06-30T12:56:27.366Z,1345
2017-06-30T12:57:37.898Z,1290
2017-06-30T12:58:48.172Z,1260
2017-06-30T12:59:58.450Z,1235
2017-06-30T13:01:08.726Z,985
2017-06-30T13:02:18.674Z,1205
2017-06-30T13:03:29.194Z,1095
2017-06-30T13:04:39.168Z,1300
2017-06-30T13:05:49.442Z,1365
2017-06-30T13:06:59.709Z,1295
2017-06-30T13:08:09.992Z,1215
2017-06-30T13:09:20.204Z,1160
2017-06-30T13:10:30.482Z,960
2017-06-30T13:11:40.752Z,960
2017-06-30T13:12:51.064Z,930
2017-06-30T13:14:01.047Z,875
2017-06-30T13:15:11.577Z,920
2017-06-30T13:16:21.886Z,1035
2017-06-30T13:17:32.156Z,1300
2017-06-30T13:18:42.428Z,1550
2017-06-30T13:19:52.759Z,1465
2017-06-30T13:21:03.276Z,1280
2017-06-30T13:22:13.531Z,1240
2017-06-30T13:23:23.793Z,1200
2017-06-30T13:24:33.673Z,1325
2017-06-30T13:25:43.953Z,1420
2017-06-30T13:26:54.750Z,1660
2017-06-30T13:28:05.048Z,1305
2017-06-30T13:29:14.703Z,1095
2017-06-30T13:30:24.983Z,1165
2017-06-30T13:31:35.258Z,1055
2017-06-30T13:32:45.791Z,760
2017-06-30T13:33:56.069Z,530
2017-06-30T13:35:05.738Z,425
2017-06-30T13:36:15.400Z,390
2017-06-30T13:37:25.693Z,410
2017-06-30T13:38:35.934Z,400
2017-06-30T13:39:46.203Z,335
2017-06-30T13:40:56.478Z,255
2017-06-30T13:42:06.767Z,190
2017-06-30T13:43:17.049Z,150
2017-06-30T13:44:27.561Z,130
2017-06-30T13:45:37.531Z,120
2017-06-30T13:46:47.801Z,120
2017-06-30T13:47:57.754Z,165
2017-06-30T13:49:07.721Z,245
2017-06-30T13:50:18.221Z,270
2017-06-30T13:51:28.184Z,305
2017-06-30T13:52:38.459Z,385
2017-06-30T13:53:48.718Z,495
2017-06-30T13:54:58.985Z,580
2017-06-30T13:56:09.213Z,525
2017-06-30T13:57:19.488Z,535
2017-06-30T13:58:29.762Z,605
2017-06-30T13:59:39.368Z,1100
2017-06-30T14:00:49.334Z,720
2017-06-30T14:01:59.552Z,750
2017-06-30T14:03:09.209Z,595
2017-06-30T14:04:19.517Z,595
2017-06-30T14:05:29.781Z,550
2017-06-30T14:06:40.043Z,500
2017-06-30T14:07:50.252Z,450
2017-06-30T14:09:00.215Z,390
2017-06-30T14:10:10.184Z,355
2017-06-30T14:11:20.443Z,330
2017-06-30T14:12:30.715Z,310
2017-06-30T14:13:41.227Z,305
2017-06-30T14:14:51.186Z,290
2017-06-30T14:16:01.472Z,270
2017-06-30T14:17:11.736Z,255
2017-06-30T14:18:22.013Z,225
2017-06-30T14:19:32.531Z,195
2017-06-30T14:20:42.814Z,175
2017-06-30T14:21:53.114Z,150
2017-06-30T14:23:03.067Z,135
2017-06-30T14:24:13.026Z,105
2017-06-30T14:25:23.595Z,90
2017-06-30T14:26:33.555Z,75
2017-06-30T14:27:43.501Z,70
2017-06-30T14:28:53.450Z,65
2017-06-30T14:30:03.747Z,55
2017-06-30T14:31:13.967Z,50
2017-06-30T14:32:23.921Z,50
2017-06-30T14:33:34.194Z,60
2017-06-30T14:34:44.464Z,60
2017-06-30T14:35:54.413Z,50
2017-06-30T14:37:04.606Z,55
2017-06-30T14:38:14.884Z,50
2017-06-30T14:39:24.851Z,45
2017-06-30T14:40:35.142Z,40
2017-06-30T14:41:45.412Z,35
2017-06-30T14:42:55.942Z,55
2017-06-30T14:44:05.900Z,80
2017-06-30T14:45:15.869Z,80
2017-06-30T14:46:25.853Z,95
2017-06-30T14:47:36.130Z,105
2017-06-30T14:48:45.711Z,90
2017-06-30T14:49:55.969Z,90
2017-06-30T14:51:06.241Z,95
2017-06-30T14:52:16.513Z,90
2017-06-30T14:53:26.768Z,75
2017-06-30T14:54:37.354Z,70
2017-06-30T14:55:47.604Z,70
2017-06-30T14:56:57.574Z,75
2017-06-30T14:58:07.516Z,70
2017-06-30T14:59:17.778Z,70
2017-06-30T15:00:28.304Z,80
2017-06-30T15:01:38.554Z,75
2017-06-30T15:02:48.512Z,80
2017-06-30T15:03:58.989Z,85
2017-06-30T15:05:09.252Z,100
2017-06-30T15:06:19.770Z,110
2017-06-30T15:07:30.045Z,115
2017-06-30T15:08:39.712Z,130
2017-06-30T15:09:49.674Z,155
2017-06-30T15:10:59.029Z,185
2017-06-30T15:12:09.650Z,230
2017-06-30T15:13:19.937Z,280
2017-06-30T15:14:29.885Z,320
2017-06-30T15:15:39.852Z,360
2017-06-30T15:16:49.842Z,390
2017-06-30T15:18:00.044Z,420
2017-06-30T15:19:10.308Z,445
2017-06-30T15:20:20.569Z,475
2017-06-30T15:21:30.844Z,495
2017-06-30T15:22:41.148Z,515
2017-06-30T15:23:51.667Z,535
2017-06-30T15:25:01.324Z,555
2017-06-30T15:26:10.961Z,565
2017-06-30T15:27:20.913Z,580
2017-06-30T15:28:31.179Z,580
2017-06-30T15:29:41.704Z,590
2017-06-30T15:30:51.958Z,615
2017-06-30T15:32:02.251Z,675
2017-06-30T15:33:12.516Z,730
2017-06-30T15:34:22.781Z,770
2017-06-30T15:35:33.294Z,790
2017-06-30T15:36:43.242Z,785
2017-06-30T15:37:53.218Z,785
2017-06-30T15:39:03.484Z,800
2017-06-30T15:40:13.466Z,850
2017-06-30T15:41:23.991Z,875
2017-06-30T15:42:34.258Z,955
2017-06-30T15:43:44.514Z,1140
2017-06-30T15:44:54.472Z,1170
2017-06-30T15:46:04.108Z,1040
2017-06-30T15:47:14.008Z,1015
2017-06-30T15:48:23.959Z,950
2017-06-30T15:49:34.223Z,850
2017-06-30T15:50:44.492Z,910
2017-06-30T15:51:54.449Z,785
2017-06-30T15:53:04.682Z,710
2017-06-30T15:54:14.941Z,660
2017-06-30T15:55:25.227Z,570
2017-06-30T15:56:35.503Z,470
2017-06-30T15:57:45.462Z,440
2017-06-30T15:58:55.662Z,475
2017-06-30T16:00:05.299Z,590
2017-06-30T16:01:15.583Z,650
2017-06-30T16:02:25.855Z,660
2017-06-30T16:03:36.133Z,640
2017-06-30T16:04:46.394Z,560
2017-06-30T16:05:56.673Z,515
2017-06-30T16:07:06.945Z,470
2017-06-30T16:08:16.897Z,415
2017-06-30T16:09:27.151Z,350
2017-06-30T16:10:37.743Z,285
2017-06-30T16:11:48.003Z,260
2017-06-30T16:12:57.971Z,215
2017-06-30T16:14:08.265Z,245
2017-06-30T16:15:18.219Z,350
2017-06-30T16:16:28.779Z,320
2017-06-30T16:17:39.044Z,275
2017-06-30T16:18:49.321Z,195
2017-06-30T16:19:59.617Z,130
2017-06-30T16:21:09.891Z,115
2017-06-30T16:22:20.129Z,150
2017-06-30T16:23:30.430Z,175
2017-06-30T16:24:40.729Z,190
2017-06-30T16:25:50.998Z,160
2017-06-30T16:27:01.270Z,130
2017-06-30T16:28:11.791Z,115
2017-06-30T16:29:22.083Z,115
2017-06-30T16:30:32.035Z,135
2017-06-30T16:31:42.300Z,180
2017-06-30T16:32:52.258Z,245
2017-06-30T16:34:02.457Z,360
2017-06-30T16:35:12.411Z,410
2017-06-30T16:36:22.676Z,420
2017-06-30T16:37:32.639Z,410
2017-06-30T16:38:42.940Z,360
2017-06-30T16:39:53.464Z,290
2017-06-30T16:41:03.738Z,270
2017-06-30T16:42:13.687Z,275
2017-06-30T16:43:23.954Z,290
2017-06-30T16:44:33.925Z,300
2017-06-30T16:45:44.425Z,275
2017-06-30T16:46:54.380Z,275
2017-06-30T16:48:04.624Z,290
2017-06-30T16:49:14.603Z,245
2017-06-30T16:50:24.860Z,210
2017-06-30T16:51:35.075Z,185
2017-06-30T16:52:45.342Z,155
2017-06-30T16:53:55.615Z,100
2017-06-30T16:55:05.580Z,60
2017-06-30T16:56:15.548Z,35
2017-06-30T16:57:25.458Z,25
2017-06-30T16:58:35.735Z,20
2017-06-30T16:59:45.996Z,15
2017-06-30T17:00:56.264Z,20
2017-06-30T17:02:06.232Z,20
2017-06-30T17:03:16.965Z,15
2017-06-30T17:04:26.944Z,20
2017-06-30T17:05:36.918Z,30
2017-06-30T17:06:47.200Z,30
2017-06-30T17:07:57.462Z,15
2017-06-30T17:09:07.984Z,10
2017-06-30T17:10:18.254Z,20
2017-06-30T17:11:27.912Z,30
2017-06-30T17:12:38.183Z,35
2017-06-30T17:13:48.444Z,25
2017-06-30T17:14:58.966Z,25
2017-06-30T17:16:08.950Z,25
2017-06-30T17:17:19.210Z,25
2017-06-30T17:18:29.481Z,20
2017-06-30T17:19:39.427Z,15
2017-06-30T17:20:49.935Z,10
2017-06-30T17:22:00.214Z,15
2017-06-30T17:23:10.156Z,20
2017-06-30T17:24:20.116Z,20
2017-06-30T17:25:30.075Z,30
2017-06-30T17:26:40.306Z,35
2017-06-30T17:27:50.561Z,45
2017-06-30T17:29:00.827Z,70
2017-06-30T17:30:10.784Z,75
2017-06-30T17:31:20.732Z,90
2017-06-30T17:32:31.307Z,135
2017-06-30T17:33:41.622Z,160
2017-06-30T17:34:51.881Z,130
2017-06-30T17:36:02.142Z,115
2017-06-30T17:37:12.424Z,150
2017-06-30T17:38:22.946Z,175
2017-06-30T17:39:32.585Z,200
2017-06-30T17:40:42.832Z,215
2017-06-30T17:41:52.470Z,225
2017-06-30T17:43:02.444Z,225
2017-06-30T17:44:12.957Z,215
2017-06-30T17:45:23.213Z,190
2017-06-30T17:46:33.468Z,155
2017-06-30T17:47:43.720Z,120
2017-06-30T17:48:53.677Z,140
2017-06-30T17:50:04.188Z,160
2017-06-30T17:51:14.473Z,160
2017-06-30T17:52:24.434Z,155
2017-06-30T17:53:34.694Z,150
2017-06-30T17:54:44.650Z,140
2017-06-30T17:55:55.187Z,130
2017-06-30T17:57:05.454Z,140
2017-06-30T17:58:15.737Z,125
2017-06-30T17:59:26.007Z,110
2017-06-30T18:00:36.255Z,110
2017-06-30T18:01:46.773Z,120
2017-06-30T18:02:57.049Z,120
2017-06-30T18:04:07.309Z,110
2017-06-30T18:05:17.287Z,105
2017-06-30T18:06:27.548Z,90
2017-06-30T18:07:38.061Z,80
2017-06-30T18:08:48.029Z,85
2017-06-30T18:09:58.013Z,90
2017-06-30T18:11:07.982Z,90
2017-06-30T18:12:18.273Z,80
2017-06-30T18:13:28.464Z,80
2017-06-30T18:14:38.749Z,75
2017-06-30T18:15:49.032Z,75
2017-06-30T18:16:59.002Z,75
2017-06-30T18:18:09.262Z,75
2017-06-30T18:19:19.478Z,75
2017-06-30T18:20:29.727Z,75
2017-06-30T18:21:39.984Z,75
2017-06-30T18:22:49.652Z,75
2017-06-30T18:23:59.920Z,75
2017-06-30T18:25:10.441Z,75
2017-06-30T18:26:20.410Z,75
2017-06-30T18:27:30.696Z,70
2017-06-30T18:28:40.642Z,60
2017-06-30T18:29:50.896Z,45
2017-06-30T18:31:01.456Z,40
2017-06-30T18:32:11.728Z,35
2017-06-30T18:33:21.377Z,30
2017-06-30T18:34:31.711Z,30
2017-06-30T18:35:41.678Z,25
2017-06-30T18:36:52.272Z,25
2017-06-30T18:38:02.529Z,25
2017-06-30T18:39:12.810Z,30
2017-06-30T18:40:23.078Z,40
2017-06-30T18:41:33.355Z,40
2017-06-30T18:42:43.584Z,40
2017-06-30T18:43:53.545Z,40
2017-06-30T18:45:03.516Z,40
2017-06-30T18:46:13.810Z,35
2017-06-30T18:47:23.788Z,25
2017-06-30T18:48:34.298Z,20
2017-06-30T18:49:44.565Z,10
2017-06-30T18:50:54.827Z,5
2017-06-30T18:52:05.105Z,5
2017-06-30T18:53:15.372Z,10
2017-06-30T18:54:25.575Z,15
2017-06-30T18:55:35.846Z,15
2017-06-30T18:56:45.810Z,10
2017-06-30T18:57:55.460Z,10
2017-06-30T18:59:05.711Z,10
2017-06-30T19:00:16.322Z,15
2017-06-30T19:01:26.279Z,25
2017-06-30T19:02:36.557Z,30
2017-06-30T19:03:46.512Z,25
2017-06-30T19:04:56.819Z,25
2017-06-30T19:06:07.011Z,25
2017-06-30T19:07:16.964Z,25
2017-06-30T19:08:27.222Z,20
2017-06-30T19:09:37.475Z,20
2017-06-30T19:10:47.742Z,20
2017-06-30T19:11:57.644Z,20
2017-06-30T19:13:07.909Z,20
2017-06-30T19:14:17.868Z,20
2017-06-30T19:15:27.513Z,20
2017-06-30T19:16:37.789Z,20
2017-06-30T19:17:47.676Z,20
2017-06-30T19:18:57.341Z,15
2017-06-30T19:20:07.322Z,15
2017-06-30T19:21:17.278Z,10
2017-06-30T19:22:27.538Z,10
2017-06-30T19:23:37.789Z,5
2017-06-30T19:24:47.767Z,5
2017-06-30T19:25:57.723Z,5
2017-06-30T19:27:07.989Z,5
2017-06-30T19:28:17.941Z,5
2017-06-30T19:29:28.153Z,5
2017-06-30T19:30:38.430Z,5
2017-06-30T19:31:48.712Z,5
2017-06-30T19:32:58.991Z,5
2017-06-30T19:34:08.955Z,0
2017-06-30T19:35:19.482Z,0
2017-06-30T19:36:29.758Z,0
2017-06-30T19:37:40.034Z,0
2017-06-30T19:38:50.014Z,0
2017-06-30T19:40:00.273Z,0
2017-06-30T19:41:10.500Z,0
2017-06-30T19:42:20.455Z,0
2017-06-30T19:43:30.729Z,0
2017-06-30T19:44:40.671Z,0
2017-06-30T19:45:50.946Z,0
2017-06-30T19:47:01.137Z,0
2017-06-30T19:48:11.418Z,0
2017-06-30T19:49:21.676Z,0
2017-06-30T19:50:31.934Z,0
2017-06-30T19:51:42.208Z,0
2017-06-30T19:52:52.739Z,0
2017-06-30T19:54:02.750Z,0
2017-06-30T19:55:12.721Z,0
2017-06-30T19:56:22.679Z,0
2017-06-30T19:57:32.939Z,0
2017-06-30T19:58:43.505Z,0
2017-06-30T19:59:53.773Z,0
2017-06-30T20:01:04.053Z,0
2017-06-30T20:02:14.021Z,0
2017-06-30T20:03:24.307Z,0
2017-06-30T20:04:34.836Z,0
2017-06-30T20:05:45.104Z,0
2017-06-30T20:06:54.732Z,0
2017-06-30T20:08:04.982Z,0
2017-06-30T20:09:15.252Z,0
2017-06-30T20:10:25.441Z,0
2017-06-30T20:11:35.421Z,0
2017-06-30T20:12:45.704Z,0
2017-06-30T20:13:55.978Z,0
2017-06-30T20:15:05.948Z,0
2017-06-30T20:16:16.484Z,0
2017-06-30T20:17:26.454Z,0
2017-06-30T20:18:36.739Z,0
2017-06-30T20:19:47.019Z,0
2017-06-30T20:20:57.277Z,0
2017-06-30T20:22:07.497Z,0
2017-06-30T20:23:17.761Z,0
2017-06-30T20:24:28.057Z,0
2017-06-30T20:25:38.330Z,0
2017-06-30T20:26:48.607Z,0
2017-06-30T20:27:59.145Z,0
2017-06-30T20:29:09.106Z,0
2017-06-30T20:30:19.105Z,0
2017-06-30T20:31:29.396Z,0
2017-06-30T20:32:39.367Z,0
2017-06-30T20:33:49.893Z,0
2017-06-30T20:34:59.537Z,0
2017-06-30T20:36:09.855Z,0
2017-06-30T20:37:20.138Z,0
2017-06-30T20:38:29.789Z,0
2017-06-30T20:39:39.672Z,0
2017-06-30T20:40:49.333Z,0
2017-06-30T20:41:59.611Z,0
2017-06-30T20:43:09.879Z,0
2017-06-30T20:44:20.153Z,0
2017-06-30T20:45:30.667Z,0
2017-06-30T20:46:40.935Z,0
2017-06-30T20:47:51.225Z,0
2017-06-30T20:49:01.193Z,0
2017-06-30T20:50:11.139Z,0
2017-06-30T20:51:21.683Z,0
2017-06-30T20:52:31.945Z,0
2017-06-30T20:53:42.203Z,0
2017-06-30T20:54:52.456Z,0
2017-06-30T20:56:02.725Z,0
2017-06-30T20:57:13.234Z,0
2017-06-30T20:58:23.227Z,0
2017-06-30T20:59:33.499Z,0
2017-06-30T21:00:43.783Z,0
2017-06-30T21:01:54.037Z,0
2017-06-30T21:03:04.555Z,0
2017-06-30T21:04:14.208Z,0
2017-06-30T21:05:24.456Z,0
2017-06-30T21:06:34.415Z,0
2017-06-30T21:07:44.685Z,0
2017-06-30T21:08:55.189Z,0
2017-06-30T21:10:05.457Z,0
2017-06-30T21:11:15.402Z,0
2017-06-30T21:12:25.678Z,0
2017-06-30T21:13:35.921Z,0
2017-06-30T21:14:46.443Z,0
2017-06-30T21:15:56.737Z,0
2017-06-30T21:17:07.009Z,0
2017-06-30T21:18:17.012Z,0
2017-06-30T21:19:27.279Z,0
2017-06-30T21:20:37.474Z,0